Time;durP1;ratioP1;P1;durP2;ratioP2;P2;SDS_P1;SDS_P2;PMS_P1;PMS_P2;Temp;Humidity;BMP_temperature;BMP_pressure;BME280_temperature;BME280_humidity;BME280_pressure;Samples;Min_cycle;Max_cycle;Signal;HPM_P1;HPM_P2
2022/11/24 00:01:52;;;;;;;4.63;1.80;;;7.10;98.90;;;;;;5050180;28;20202;-90
2022/11/24 00:04:19;;;;;;;3.67;1.90;;;7.10;98.90;;;;;;5047362;28;20642;-90
2022/11/24 00:06:48;;;;;;;5.13;2.10;;;7.20;98.80;;;;;;5050008;28;20227;-89
2022/11/24 00:09:15;;;;;;;4.13;2.17;;;7.10;98.90;;;;;;5048994;28;20206;-90
2022/11/24 00:11:42;;;;;;;5.88;1.80;;;7.10;98.80;;;;;;5039534;28;20285;-90
2022/11/24 00:14:09;;;;;;;5.05;2.03;;;7.20;98.70;;;;;;5048009;28;20216;-90
2022/11/24 00:16:38;;;;;;;7.25;1.80;;;7.10;98.50;;;;;;5046942;28;20201;-90
2022/11/24 00:19:08;;;;;;;5.95;1.88;;;7.10;98.70;;;;;;5037048;28;20301;-90
2022/11/24 00:21:35;;;;;;;3.13;1.65;;;7.10;98.60;;;;;;5050841;28;20202;-90
2022/11/24 00:24:04;;;;;;;4.18;1.60;;;7.20;98.20;;;;;;5049865;28;20348;-90
2022/11/24 00:26:33;;;;;;;9.25;2.00;;;7.20;98.10;;;;;;5046349;28;20280;-89
2022/11/24 00:29:03;;;;;;;5.30;1.88;;;7.20;98.30;;;;;;5043621;28;20209;-89
2022/11/24 00:31:32;;;;;;;5.13;1.70;;;7.20;98.10;;;;;;5041280;28;20232;-90
2022/11/24 00:34:01;;;;;;;5.68;1.85;;;7.10;98.10;;;;;;5050072;28;20198;-89
2022/11/24 00:36:33;;;;;;;3.17;1.83;;;7.10;98.10;;;;;;5051893;28;20285;-90
2022/11/24 00:39:01;;;;;;;5.78;1.60;;;7.10;98.10;;;;;;5048463;28;20665;-90
2022/11/24 00:41:31;;;;;;;11.05;1.98;;;7.10;98.10;;;;;;5040975;28;20263;-90
2022/11/24 00:43:58;;;;;;;3.65;2.00;;;7.10;98.10;;;;;;5045898;28;20222;-90
2022/11/24 00:46:31;;;;;;;5.03;1.80;;;7.10;98.30;;;;;;5036901;28;20272;-90
2022/11/24 00:48:59;;;;;;;4.85;1.70;;;7.00;98.40;;;;;;5039491;28;20198;-90
2022/11/24 00:51:31;;;;;;;3.97;1.80;;;7.10;98.70;;;;;;5047612;28;20194;-90
2022/11/24 00:53:58;;;;;;;6.25;2.05;;;7.10;98.10;;;;;;5050010;28;20224;-90
2022/11/24 00:56:26;;;;;;;7.95;2.28;;;7.20;97.80;;;;;;5029202;28;20201;-90
2022/11/24 00:58:54;;;;;;;5.43;2.25;;;7.20;97.80;;;;;;5043504;28;20197;-90
2022/11/24 01:01:27;;;;;;;3.78;1.70;;;7.20;97.70;;;;;;5048565;28;20220;-90
2022/11/24 01:03:55;;;;;;;4.45;1.85;;;7.10;97.80;;;;;;5050679;28;20249;-90
2022/11/24 01:06:25;;;;;;;5.43;1.70;;;7.20;97.80;;;;;;5048624;28;20205;-90
2022/11/24 01:08:51;;;;;;;7.45;1.77;;;7.10;97.80;;;;;;5049815;28;20236;-90
2022/11/24 01:11:19;;;;;;;5.45;2.15;;;7.10;98.00;;;;;;5049249;28;20256;-90
2022/11/24 01:13:52;;;;;;;5.00;1.80;;;7.20;97.90;;;;;;5049774;28;20216;-90
2022/11/24 01:19:10;;;;;;;5.13;1.98;;;7.10;97.80;;;;;;5050066;28;20248;-90
2022/11/24 01:21:43;;;;;;;6.18;1.90;;;7.20;97.60;;;;;;5050098;28;20198;-90
2022/11/24 01:24:10;;;;;;;6.22;1.80;;;7.20;97.30;;;;;;5046565;28;20222;-90
2022/11/24 01:26:38;;;;;;;6.13;1.80;;;7.20;97.20;;;;;;5045867;28;20209;-90
2022/11/24 01:29:05;;;;;;;3.80;1.73;;;7.10;97.30;;;;;;5037661;28;20237;-90
2022/11/24 01:34:14;;;;;;;4.22;1.70;;;7.00;98.00;;;;;;5047803;28;20569;-90
2022/11/24 01:36:41;;;;;;;4.40;1.60;;;6.90;98.10;;;;;;5047354;28;20288;-90
2022/11/24 01:39:08;;;;;;;4.78;1.60;;;6.90;98.10;;;;;;5048963;28;20238;-90
2022/11/24 01:41:35;;;;;;;8.60;1.90;;;6.80;98.10;;;;;;5049482;28;20206;-90
2022/11/24 01:44:21;;;;;;;5.82;1.88;;;6.90;98.10;;;;;;5047046;28;20347;-90
2022/11/24 01:46:54;;;;;;;6.32;1.67;;;6.80;98.10;;;;;;5045157;28;20530;-90
2022/11/24 01:49:25;;;;;;;4.43;1.58;;;6.90;98.10;;;;;;5050005;28;20236;-89
2022/11/24 01:51:57;;;;;;;7.72;1.58;;;6.90;98.10;;;;;;5046385;28;20235;-90
2022/11/24 01:54:28;;;;;;;4.78;1.70;;;7.00;97.90;;;;;;5047655;28;20324;-90
2022/11/24 01:57:00;;;;;;;4.03;1.80;;;7.00;97.60;;;;;;5048855;28;20301;-90
2022/11/24 01:59:27;;;;;;;6.38;1.73;;;7.00;97.50;;;;;;5043972;28;20206;-90
2022/11/24 02:01:57;;;;;;;5.10;1.75;;;7.00;97.30;;;;;;5042688;28;20290;-90
2022/11/24 02:04:27;;;;;;;10.13;1.83;;;7.00;97.60;;;;;;5046675;28;20324;-90
2022/11/24 02:06:56;;;;;;;3.70;1.50;;;7.00;97.40;;;;;;5044044;28;20216;-90
2022/11/24 02:09:26;;;;;;;7.47;1.75;;;7.00;97.30;;;;;;5049705;28;20746;-90
2022/11/24 02:11:54;;;;;;;4.53;1.65;;;7.00;97.40;;;;;;5048501;28;20730;-90
2022/11/24 02:14:23;;;;;;;4.13;1.45;;;6.90;97.70;;;;;;5047137;28;20220;-90
2022/11/24 02:16:51;;;;;;;4.53;1.50;;;6.90;97.60;;;;;;5044158;28;20224;-90
2022/11/24 02:19:32;;;;;;;2.60;1.38;;;6.90;97.50;;;;;;5047487;28;20202;-90
2022/11/24 02:21:59;;;;;;;2.33;1.40;;;6.90;97.40;;;;;;5043792;28;20684;-89
2022/11/24 02:24:32;;;;;;;3.05;1.27;;;6.90;97.40;;;;;;5048417;28;20249;-90
2022/11/24 02:27:00;;;;;;;3.17;1.30;;;6.80;97.50;;;;;;5044648;28;20289;-89
2022/11/24 02:29:27;;;;;;;3.05;1.33;;;6.80;97.60;;;;;;5048426;28;20605;-90
2022/11/24 02:32:00;;;;;;;2.78;1.23;;;6.80;97.50;;;;;;5049475;28;20295;-90
2022/11/24 02:34:26;;;;;;;3.20;1.30;;;6.80;97.40;;;;;;5049213;28;20609;-90
2022/11/24 02:36:53;;;;;;;3.17;1.30;;;6.80;97.70;;;;;;5047894;28;20209;-90
2022/11/24 02:39:20;;;;;;;2.63;1.40;;;6.80;97.70;;;;;;5049716;28;20310;-90
2022/11/24 02:41:51;;;;;;;2.72;1.40;;;6.80;97.70;;;;;;5050298;28;20211;-90
2022/11/24 02:44:22;;;;;;;4.05;1.40;;;6.80;97.90;;;;;;5047359;28;20236;-89
2022/11/24 02:46:49;;;;;;;1.92;1.00;;;6.80;97.70;;;;;;5052352;28;20224;-90
2022/11/24 02:49:16;;;;;;;2.22;1.20;;;6.80;97.80;;;;;;5052351;28;20301;-90
2022/11/24 02:51:43;;;;;;;4.63;1.20;;;6.90;97.60;;;;;;5052566;28;20229;-90
2022/11/24 02:54:10;;;;;;;2.43;1.20;;;6.90;97.40;;;;;;5052486;28;20264;-90
2022/11/24 02:56:37;;;;;;;2.75;1.30;;;7.00;96.90;;;;;;5051751;28;20293;-89
2022/11/24 02:59:04;;;;;;;2.47;1.30;;;7.00;97.20;;;;;;5048723;28;20761;-89
2022/11/24 03:01:32;;;;;;;1.90;1.00;;;7.00;97.20;;;;;;5051524;28;20302;-90
2022/11/24 03:03:59;;;;;;;2.88;1.30;;;7.00;97.50;;;;;;5048741;28;21211;-89
2022/11/24 03:06:26;;;;;;;2.90;1.20;;;6.90;97.40;;;;;;5049532;28;20828;-90
2022/11/24 03:08:53;;;;;;;1.10;1.00;;;6.90;97.50;;;;;;5052073;28;20677;-90
2022/11/24 03:11:20;;;;;;;2.03;1.10;;;6.90;97.60;;;;;;5053799;28;20217;-89
2022/11/24 03:13:47;;;;;;;2.00;1.05;;;6.90;97.60;;;;;;5051583;28;20304;-90
2022/11/24 03:16:13;;;;;;;1.45;1.10;;;6.90;97.70;;;;;;5053832;28;20208;-90
2022/11/24 03:18:42;;;;;;;3.05;1.17;;;6.90;98.00;;;;;;5049360;28;20741;-90
2022/11/24 03:21:09;;;;;;;2.40;1.20;;;6.90;97.90;;;;;;5049412;28;20673;-89
2022/11/24 03:23:36;;;;;;;2.55;1.30;;;7.00;97.70;;;;;;5050278;28;20600;-89
2022/11/24 03:26:10;;;;;;;4.05;1.20;;;6.90;97.70;;;;;;5048720;28;20284;-90
2022/11/24 03:28:36;;;;;;;1.98;1.20;;;6.90;98.00;;;;;;5051343;28;20206;-90
2022/11/24 03:31:04;;;;;;;1.80;1.05;;;6.90;97.80;;;;;;5042019;28;20637;-89
2022/11/24 03:33:30;;;;;;;3.13;1.20;;;6.90;97.80;;;;;;5044538;28;20598;-90
2022/11/24 03:38:40;;;;;;;1.45;1.00;;;7.00;97.60;;;;;;5050988;28;20727;-90
2022/11/24 03:41:06;;;;;;;2.35;1.15;;;7.00;97.40;;;;;;5049205;28;20301;-89
2022/11/24 03:43:33;;;;;;;1.83;1.10;;;6.90;97.80;;;;;;5050106;28;20325;-89
2022/11/24 03:46:00;;;;;;;3.03;1.33;;;6.90;97.80;;;;;;5049229;28;20645;-90
2022/11/24 03:48:31;;;;;;;2.22;1.08;;;7.00;97.70;;;;;;5051165;28;20293;-90
2022/11/24 03:51:01;;;;;;;3.15;1.35;;;7.00;97.90;;;;;;5044550;28;20337;-90
2022/11/24 03:53:30;;;;;;;2.97;0.95;;;7.00;98.00;;;;;;5052365;28;20222;-90
2022/11/24 03:55:57;;;;;;;2.42;2.13;;;7.00;97.90;;;;;;5043448;28;20341;-89
2022/11/24 03:58:24;;;;;;;4.03;1.45;;;6.90;98.10;;;;;;5046907;28;20286;-90
2022/11/24 04:00:53;;;;;;;1.88;0.82;;;6.90;98.30;;;;;;5052659;28;20213;-89
2022/11/24 04:03:21;;;;;;;1.85;1.13;;;6.90;98.30;;;;;;5051866;28;20288;-90
2022/11/24 04:05:49;;;;;;;2.78;1.30;;;6.90;98.30;;;;;;5050255;28;20298;-90
2022/11/24 04:08:18;;;;;;;1.30;0.98;;;6.90;98.10;;;;;;5056344;28;20653;-90
2022/11/24 04:10:45;;;;;;;3.60;1.10;;;7.00;97.90;;;;;;5058033;28;20212;-90
2022/11/24 04:13:13;;;;;;;5.15;1.23;;;7.00;97.80;;;;;;5054908;28;20210;-90
2022/11/24 04:15:41;;;;;;;1.58;1.13;;;7.00;97.80;;;;;;5049882;28;20198;-90
2022/11/24 04:18:09;;;;;;;2.50;1.05;;;7.10;97.50;;;;;;5050688;28;20299;-90
2022/11/24 04:20:36;;;;;;;2.30;1.02;;;7.00;98.00;;;;;;5050261;28;20576;-90
2022/11/24 04:23:04;;;;;;;1.20;0.90;;;7.00;98.10;;;;;;5056298;28;20283;-89
2022/11/24 04:25:32;;;;;;;1.83;1.10;;;6.90;98.10;;;;;;5047737;28;20592;-89
2022/11/24 04:27:59;;;;;;;2.03;1.02;;;6.80;98.50;;;;;;5050282;28;20208;-89
2022/11/24 04:30:28;;;;;;;1.85;1.13;;;6.70;98.50;;;;;;5051557;28;20624;-89
2022/11/24 04:32:56;;;;;;;1.88;1.00;;;6.70;98.50;;;;;;5041682;28;20209;-89
2022/11/24 04:35:23;;;;;;;1.65;0.80;;;6.70;98.70;;;;;;5050771;28;20201;-90
2022/11/24 04:37:50;;;;;;;2.65;1.33;;;6.70;98.40;;;;;;5050785;28;20206;-89
2022/11/24 04:40:17;;;;;;;2.20;1.13;;;6.80;98.40;;;;;;5049881;28;20297;-90
2022/11/24 04:42:52;;;;;;;3.05;1.40;;;6.80;98.40;;;;;;5043740;28;20289;-89
2022/11/24 04:45:19;;;;;;;3.58;1.30;;;6.80;98.40;;;;;;5054441;28;20225;-90
2022/11/24 04:47:46;;;;;;;2.22;1.10;;;6.90;98.10;;;;;;5048235;28;20217;-89
2022/11/24 04:50:13;;;;;;;2.83;1.10;;;6.90;98.10;;;;;;5050627;28;20202;-90
2022/11/24 04:52:40;;;;;;;2.67;1.13;;;6.90;97.70;;;;;;5050427;28;20752;-89
2022/11/24 04:55:08;;;;;;;1.95;0.95;;;7.00;97.80;;;;;;5053990;28;20280;-90
2022/11/24 04:57:35;;;;;;;2.33;1.00;;;6.90;98.10;;;;;;5040914;28;20312;-90
2022/11/24 05:00:05;;;;;;;2.53;1.38;;;6.90;98.10;;;;;;5049472;28;20288;-89
2022/11/24 05:02:32;;;;;;;2.60;1.40;;;6.90;97.90;;;;;;5051586;28;20629;-90
2022/11/24 05:05:01;;;;;;;4.65;1.45;;;7.00;98.10;;;;;;5048537;28;20226;-89
2022/11/24 05:07:28;;;;;;;4.05;1.40;;;7.00;98.10;;;;;;5048604;28;20194;-89
2022/11/24 05:12:40;;;;;;;4.13;1.30;;;6.90;98.20;;;;;;5042116;28;20228;-89
2022/11/24 05:15:10;;;;;;;5.10;1.52;;;7.00;98.10;;;;;;5042193;28;20198;-90
2022/11/24 05:17:38;;;;;;;4.15;1.17;;;7.00;98.10;;;;;;5049374;28;20280;-89
2022/11/24 05:20:07;;;;;;;5.30;1.48;;;7.00;98.10;;;;;;5048124;28;20639;-90
2022/11/24 05:22:33;;;;;;;6.25;1.55;;;7.00;98.10;;;;;;5059381;28;20201;-89
2022/11/24 05:25:00;;;;;;;4.50;1.30;;;7.00;98.10;;;;;;5053909;28;20304;-89
2022/11/24 05:27:27;;;;;;;3.83;1.70;;;7.00;98.50;;;;;;5061595;28;20219;-89
2022/11/24 05:29:54;;;;;;;2.78;1.35;;;7.00;98.50;;;;;;5053051;28;20646;-89
2022/11/24 05:32:23;;;;;;;6.63;1.50;;;7.10;98.10;;;;;;5048542;28;20243;-89
2022/11/24 05:34:50;;;;;;;5.78;1.60;;;7.10;98.10;;;;;;5049791;28;20206;-89
2022/11/24 05:37:17;;;;;;;5.68;1.60;;;7.10;98.10;;;;;;5040896;28;20207;-89
2022/11/24 05:39:44;;;;;;;3.45;1.60;;;7.10;98.10;;;;;;5045219;28;20295;-89
2022/11/24 05:44:56;;;;;;;3.47;1.50;;;7.10;98.20;;;;;;5046903;28;20351;-89
2022/11/24 05:47:27;;;;;;;4.18;1.67;;;7.20;98.20;;;;;;5056805;28;20205;-90
2022/11/24 05:49:55;;;;;;;5.20;1.42;;;7.10;98.30;;;;;;5045521;28;20206;-89
2022/11/24 05:52:23;;;;;;;7.75;1.92;;;7.20;98.20;;;;;;5040176;28;20206;-88
2022/11/24 05:54:50;;;;;;;4.60;1.63;;;7.30;98.00;;;;;;5045760;28;20350;-88
2022/11/24 05:57:19;;;;;;;3.70;1.55;;;7.20;98.20;;;;;;5049894;28;20296;-88
2022/11/24 05:59:46;;;;;;;5.20;1.63;;;7.20;98.10;;;;;;5044897;28;20198;-88
2022/11/24 06:02:13;;;;;;;5.63;1.88;;;7.20;98.10;;;;;;5042397;28;20205;-90
2022/11/24 06:04:41;;;;;;;8.40;2.00;;;7.30;97.80;;;;;;5040917;28;20309;-87
2022/11/24 06:07:10;;;;;;;8.55;1.65;;;7.30;97.40;;;;;;5045446;28;20783;-91
2022/11/24 06:09:37;;;;;;;7.25;1.80;;;7.30;97.60;;;;;;5033802;28;20293;-90
2022/11/24 06:12:05;;;;;;;9.52;2.00;;;7.30;97.40;;;;;;5049492;28;20208;-91
2022/11/24 06:14:49;;;;;;;5.28;1.67;;;7.20;97.70;;;;;;5049127;28;20289;-95
2022/11/24 06:17:16;;;;;;;6.95;2.05;;;7.20;98.00;;;;;;5049141;28;20205;-87
2022/11/24 06:19:48;;;;;;;7.15;1.85;;;7.20;97.80;;;;;;5047981;28;20647;-88
2022/11/24 06:22:16;;;;;;;7.28;1.80;;;7.30;97.50;;;;;;5047237;28;20202;-88
2022/11/24 06:25:02;;;;;;;5.90;1.58;;;7.20;97.80;;;;;;5006099;28;20706;-88
2022/11/24 06:27:29;;;;;;;6.07;1.95;;;7.30;97.70;;;;;;5005480;28;20218;-88
2022/11/24 06:29:56;;;;;;;7.43;1.90;;;7.30;97.60;;;;;;5006401;28;20263;-88
2022/11/24 06:32:24;;;;;;;9.50;2.10;;;7.30;97.60;;;;;;5006388;28;20294;-91
2022/11/24 06:34:57;;;;;;;4.95;1.80;;;7.30;97.50;;;;;;5006980;28;20196;-91
2022/11/24 06:37:24;;;;;;;9.27;2.28;;;7.30;97.50;;;;;;5003390;28;20631;-90
2022/11/24 06:39:51;;;;;;;6.55;1.95;;;7.30;97.50;;;;;;5004960;28;20860;-89
2022/11/24 06:42:18;;;;;;;6.47;1.90;;;7.30;97.60;;;;;;4995421;28;20671;-89
2022/11/24 06:44:45;;;;;;;6.35;1.75;;;7.30;97.90;;;;;;5047239;28;20213;-89
2022/11/24 06:47:14;;;;;;;6.95;1.83;;;7.30;97.60;;;;;;5039430;28;20289;-89
2022/11/24 06:49:49;;;;;;;8.52;1.83;;;7.40;97.20;;;;;;5048293;28;20205;-89
2022/11/24 06:52:18;;;;;;;9.05;1.92;;;7.40;97.30;;;;;;5043609;28;20236;-89
2022/11/24 06:54:44;;;;;;;5.47;1.75;;;7.30;97.20;;;;;;5047675;28;20305;-88
2022/11/24 06:57:11;;;;;;;5.47;1.70;;;7.30;97.20;;;;;;5049718;28;20197;-89
2022/11/24 06:59:38;;;;;;;4.20;1.92;;;7.30;97.10;;;;;;5048371;28;20293;-88
2022/11/24 07:02:05;;;;;;;7.43;2.17;;;7.30;97.20;;;;;;5038572;28;20313;-89
2022/11/24 07:04:32;;;;;;;4.88;1.80;;;7.30;97.30;;;;;;5036187;28;20652;-89
2022/11/24 07:06:59;;;;;;;7.80;2.25;;;7.40;97.00;;;;;;5046001;28;20234;-88
2022/11/24 07:09:27;;;;;;;8.32;2.00;;;7.50;96.30;;;;;;5045783;28;20224;-89
2022/11/24 07:11:55;;;;;;;6.47;1.90;;;7.40;96.40;;;;;;5038466;28;20226;-89
2022/11/24 07:14:22;;;;;;;8.85;2.28;;;7.40;96.80;;;;;;5047288;28;20214;-88
2022/11/24 07:16:49;;;;;;;9.43;2.22;;;7.40;96.50;;;;;;5047436;28;20727;-88
2022/11/24 07:19:16;;;;;;;6.00;1.95;;;7.40;96.60;;;;;;5043962;28;20217;-89
2022/11/24 07:21:43;;;;;;;7.70;2.00;;;7.40;96.60;;;;;;5043638;28;20210;-89
2022/11/24 07:24:10;;;;;;;6.60;1.92;;;7.40;96.30;;;;;;5047841;28;20288;-88
2022/11/24 07:26:38;;;;;;;7.28;1.90;;;7.40;96.50;;;;;;5050081;28;20292;-89
2022/11/24 07:29:06;;;;;;;11.50;2.58;;;7.50;96.10;;;;;;5037056;28;20198;-89
2022/11/24 07:31:33;;;;;;;6.53;1.88;;;7.50;95.80;;;;;;5053197;28;20213;-89
2022/11/24 07:34:01;;;;;;;7.80;1.85;;;7.50;95.60;;;;;;5044276;28;20297;-88
2022/11/24 07:36:28;;;;;;;7.20;1.85;;;7.50;95.60;;;;;;5050300;28;20212;-89
2022/11/24 07:38:55;;;;;;;10.43;2.17;;;7.40;95.60;;;;;;5053678;28;20293;-89
2022/11/24 07:41:22;;;;;;;8.43;2.03;;;7.30;96.00;;;;;;5051990;28;20762;-88
2022/11/24 07:43:51;;;;;;;6.35;2.13;;;7.30;96.40;;;;;;5052447;28;20292;-89
2022/11/24 07:46:20;;;;;;;8.15;2.03;;;7.30;96.30;;;;;;5050902;28;20233;-89
2022/11/24 07:48:49;;;;;;;6.53;2.13;;;7.30;96.10;;;;;;5053330;28;20206;-89
2022/11/24 07:51:16;;;;;;;8.93;2.42;;;7.50;96.20;;;;;;5050652;28;20202;-88
2022/11/24 07:53:44;;;;;;;6.05;1.73;;;7.50;95.60;;;;;;5045080;28;20741;-89
2022/11/24 07:56:12;;;;;;;6.65;2.10;;;7.70;95.60;;;;;;5049200;28;20300;-88
2022/11/24 07:58:38;;;;;;;3.85;1.63;;;7.70;94.60;;;;;;5052637;28;20220;-89
2022/11/24 08:01:12;;;;;;;8.63;1.98;;;7.70;94.70;;;;;;5046195;28;20199;-88
2022/11/24 08:03:39;;;;;;;4.53;1.70;;;7.70;94.40;;;;;;5039689;28;20566;-89
2022/11/24 08:06:07;;;;;;;5.78;1.77;;;7.70;93.80;;;;;;5037674;28;20214;-89
2022/11/24 08:08:37;;;;;;;9.68;2.00;;;7.70;93.80;;;;;;5046487;28;20205;-90
2022/11/24 08:11:06;;;;;;;7.88;1.60;;;7.80;93.60;;;;;;5049607;28;20200;-91
2022/11/24 08:13:33;;;;;;;6.43;2.03;;;7.80;93.10;;;;;;5051137;28;20205;-90
2022/11/24 08:16:04;;;;;;;5.15;1.90;;;7.90;93.40;;;;;;5047097;28;20288;-90
2022/11/24 08:21:14;;;;;;;8.00;1.80;;;8.10;93.10;;;;;;5004411;28;20222;-90
2022/11/24 08:23:41;;;;;;;8.68;1.88;;;8.20;92.00;;;;;;5001742;28;20203;-90
2022/11/24 08:26:17;;;;;;;4.05;1.80;;;8.40;91.70;;;;;;5006173;28;20246;-90
2022/11/24 08:28:45;;;;;;;6.10;1.98;;;8.60;90.40;;;;;;5004167;28;20203;-90
2022/11/24 08:31:31;;;;;;;8.13;2.00;;;8.70;90.40;;;;;;5010999;28;20607;-90
2022/11/24 08:38:02;;;;;;;5.95;1.80;;;9.30;88.50;;;;;;4954344;28;20216;-90
2022/11/24 08:40:32;;;;;;;5.03;1.67;;;9.70;83.70;;;;;;4944063;29;20304;-90
2022/11/24 08:43:00;;;;;;;6.00;1.63;;;9.80;80.10;;;;;;4953811;28;20490;-88
2022/11/24 08:45:43;;;;;;;4.82;1.77;;;9.70;78.50;;;;;;4961767;28;20308;-90
2022/11/24 08:48:13;;;;;;;5.32;1.90;;;9.60;77.80;;;;;;4959731;28;20402;-89
2022/11/24 08:50:44;;;;;;;5.35;1.80;;;9.60;78.50;;;;;;4947337;28;20281;-89
2022/11/24 08:53:20;;;;;;;9.23;2.10;;;9.40;79.50;;;;;;4979476;28;20224;-89
2022/11/24 08:55:49;;;;;;;5.93;1.90;;;9.30;80.40;;;;;;5051902;28;20194;-88
2022/11/24 08:58:17;;;;;;;5.75;1.70;;;9.30;80.80;;;;;;5052479;28;20277;-89
2022/11/24 09:00:44;;;;;;;5.70;2.08;;;9.20;81.00;;;;;;5052018;28;20194;-92
2022/11/24 09:03:25;;;;;;;5.32;1.98;;;9.30;81.60;;;;;;5046373;28;20225;-89
2022/11/24 09:05:57;;;;;;;4.90;1.63;;;9.50;81.00;;;;;;5043979;28;20252;-89
2022/11/24 09:19:20;;;;;;;6.03;1.48;;;10.60;65.00;;;;;;5056483;28;20598;-91
2022/11/24 09:35:27;;;;;;;5.97;1.70;;;9.90;75.90;;;;;;4972822;28;20220;-90
2022/11/24 09:40:39;;;;;;;5.63;2.10;;;11.00;59.50;;;;;;4907719;29;20206;-90
2022/11/24 09:51:49;;;;;;;7.47;2.15;;;10.00;65.80;;;;;;4795931;29;20235;-89
2022/11/24 10:01:23;;;;;;;8.27;2.10;;;9.90;74.90;;;;;;4789658;29;20714;-89
2022/11/24 10:03:51;;;;;;;7.35;1.98;;;9.80;70.10;;;;;;4814899;29;20347;-90
2022/11/24 10:13:52;;;;;;;6.40;1.58;;;10.70;63.20;;;;;;4763890;30;20268;-89
2022/11/24 10:19:20;;;;;;;7.13;1.70;;;10.60;60.20;;;;;;4708433;30;20450;-90
2022/11/24 10:25:30;;;;;;;6.60;1.70;;;10.10;62.60;;;;;;4734537;30;20247;-90
2022/11/24 10:28:00;;;;;;;3.88;1.48;;;9.90;72.20;;;;;;4741267;30;20262;-90
2022/11/24 10:30:27;;;;;;;4.35;1.58;;;9.70;74.60;;;;;;4758022;29;20294;-90
2022/11/24 10:41:20;;;;;;;6.07;1.52;;;8.80;92.10;;;;;;4776888;29;20234;-89
2022/11/24 10:43:47;;;;;;;4.00;1.83;;;8.60;92.30;;;;;;4790819;29;20223;-90
2022/11/24 10:49:03;;;;;;;4.28;1.67;;;8.50;94.00;;;;;;4764944;30;20234;-88
2022/11/24 10:52:04;;;;;;;5.80;1.30;;;8.40;94.70;;;;;;4749421;30;20244;-89
2022/11/24 10:58:16;;;;;;;3.45;1.33;;;8.00;95.80;;;;;;4750777;30;20274;-90
2022/11/24 11:04:18;;;;;;;5.50;1.30;;;7.70;97.10;;;;;;4859133;29;20253;-91
2022/11/24 11:06:50;;;;;;;3.55;1.40;;;7.50;97.80;;;;;;4888417;29;20235;-90
2022/11/24 11:09:19;;;;;;;4.68;1.60;;;7.50;98.00;;;;;;4952821;28;20613;-90
2022/11/24 11:11:47;;;;;;;4.05;1.40;;;7.50;97.20;;;;;;4997450;28;20192;-87
2022/11/24 11:14:30;;;;;;;3.50;1.27;;;7.40;97.30;;;;;;5021372;28;20195;-88
2022/11/24 11:23:02;;;;;;;3.35;1.30;;;7.50;97.90;;;;;;4915378;29;20211;-92
2022/11/24 11:25:49;;;;;;;5.38;2.15;;;7.60;98.00;;;;;;4895337;29;20223;-89
2022/11/24 11:28:29;;;;;;;7.00;2.30;;;7.60;98.00;;;;;;4890250;29;20203;-89
2022/11/24 11:33:53;;;;;;;5.72;1.50;;;7.50;98.00;;;;;;4894946;29;20207;-89
2022/11/24 11:36:20;;;;;;;3.97;1.45;;;7.50;98.10;;;;;;4887360;29;20234;-90
2022/11/24 11:38:47;;;;;;;5.68;1.67;;;7.50;98.40;;;;;;4902750;29;20230;-88
2022/11/24 11:41:20;;;;;;;4.47;1.67;;;7.40;98.80;;;;;;4912841;29;20218;-90
2022/11/24 11:43:54;;;;;;;6.03;1.70;;;7.40;98.90;;;;;;4912238;29;20753;-90
2022/11/24 11:46:31;;;;;;;4.32;1.75;;;7.50;99.20;;;;;;4910989;29;20236;-90
2022/11/24 11:49:20;;;;;;;3.17;1.52;;;7.50;99.10;;;;;;4889812;29;20654;-91
2022/11/24 11:52:03;;;;;;;5.40;1.83;;;7.60;99.00;;;;;;4909527;29;20198;-89
2022/11/24 11:54:40;;;;;;;5.47;1.40;;;7.60;98.80;;;;;;4939323;28;20221;-89
2022/11/24 11:57:11;;;;;;;2.92;1.33;;;7.60;98.80;;;;;;4949345;28;20275;-89
2022/11/24 12:00:00;;;;;;;4.43;1.60;;;7.60;99.20;;;;;;4953657;28;20399;-88
2022/11/24 12:03:00;;;;;;;3.75;1.50;;;7.60;99.20;;;;;;4948128;28;20209;-90
2022/11/24 12:05:33;;;;;;;4.97;1.52;;;7.40;99.50;;;;;;4936836;28;20206;-89
2022/11/24 12:08:14;;;;;;;4.60;1.50;;;7.40;99.60;;;;;;4968144;28;20328;-94
2022/11/24 12:10:50;;;;;;;3.53;1.45;;;7.40;99.80;;;;;;4969308;28;20236;-90
2022/11/24 12:13:47;;;;;;;3.58;1.45;;;7.60;99.50;;;;;;4969519;28;20291;-89
2022/11/24 12:16:30;;;;;;;3.67;1.30;;;7.70;99.20;;;;;;4981378;28;20215;-90
2022/11/24 12:19:17;;;;;;;2.13;1.20;;;7.90;98.80;;;;;;4970858;28;20256;-89
2022/11/24 12:21:51;;;;;;;2.33;1.27;;;7.90;99.00;;;;;;4976772;28;20620;-89
2022/11/24 12:24:23;;;;;;;3.40;1.30;;;7.90;99.40;;;;;;4975247;28;20230;-94
2022/11/24 12:26:55;;;;;;;3.90;1.42;;;8.00;99.10;;;;;;4990720;28;20248;-92
2022/11/24 12:30:32;;;;;;;4.90;1.45;;;8.00;98.40;;;;;;4950434;29;20221;-93
2022/11/24 12:43:27;;;;;;;1.80;1.08;;;7.90;99.10;;;;;;4886815;29;20568;-92
2022/11/24 12:46:02;;;;;;;2.88;1.35;;;7.80;99.10;;;;;;4876646;29;20315;-91
2022/11/24 12:48:46;;;;;;;2.55;1.50;;;7.70;99.30;;;;;;4867546;29;20304;-90
2022/11/24 12:57:29;;;;;;;2.30;1.38;;;7.90;99.40;;;;;;4857175;29;20558;-89
2022/11/24 13:00:03;;;;;;;3.97;1.75;;;7.90;99.30;;;;;;4889372;29;20202;-92
2022/11/24 13:08:07;;;;;;;2.35;1.45;;;8.10;99.20;;;;;;4853318;29;20204;-92
2022/11/24 13:16:49;;;;;;;2.65;1.42;;;7.90;99.60;;;;;;4916339;29;20210;-91
2022/11/24 13:19:20;;;;;;;3.45;1.88;;;7.80;99.80;;;;;;4931403;29;20337;-90
2022/11/24 13:22:01;;;;;;;6.50;1.90;;;7.70;99.90;;;;;;4928656;29;20238;-90
2022/11/24 13:24:30;;;;;;;3.67;1.52;;;7.80;99.90;;;;;;4929931;29;20212;-91
2022/11/24 13:41:44;;;;;;;4.20;1.75;;;7.40;99.90;;;;;;4923590;29;20209;-96
2022/11/24 13:47:25;;;;;;;5.88;1.77;;;7.30;99.90;;;;;;4846195;29;20236;-90
2022/11/24 14:02:16;;;;;;;3.45;1.50;;;7.60;99.90;;;;;;4785144;29;20218;-90
2022/11/24 14:11:19;;;;;;;5.97;2.17;;;7.30;99.90;;;;;;4822702;29;20697;-91
2022/11/24 14:13:50;;;;;;;9.10;2.60;;;7.20;99.90;;;;;;4820511;29;20300;-92
2022/11/24 14:19:10;;;;;;;6.45;2.50;;;7.10;99.90;;;;;;4860439;29;20208;-90
2022/11/24 14:21:40;;;;;;;3.17;1.80;;;7.10;99.90;;;;;;4874930;29;20586;-90
2022/11/24 14:26:59;;;;;;;3.13;1.90;;;7.20;99.90;;;;;;4957608;28;20227;-90
2022/11/24 14:29:31;;;;;;;9.20;2.28;;;7.20;99.90;;;;;;4969670;28;20208;-91
2022/11/24 14:32:00;;;;;;;4.57;1.90;;;7.20;99.90;;;;;;4967722;28;20215;-91
2022/11/24 14:34:29;;;;;;;5.90;1.90;;;7.20;99.90;;;;;;4968960;28;20208;-92
2022/11/24 14:36:57;;;;;;;5.20;1.90;;;7.20;99.90;;;;;;4967801;28;20299;-92
2022/11/24 14:42:17;;;;;;;6.80;2.00;;;7.40;99.90;;;;;;4915898;29;20226;-92
2022/11/24 14:44:47;;;;;;;4.85;1.80;;;7.50;99.90;;;;;;4910384;29;20217;-88
2022/11/24 14:47:19;;;;;;;5.65;1.55;;;7.50;99.90;;;;;;4910328;29;20233;-91
2022/11/24 14:49:46;;;;;;;5.65;1.98;;;7.60;99.90;;;;;;4962572;28;20291;-87
2022/11/24 14:52:18;;;;;;;2.67;1.73;;;7.70;99.80;;;;;;4985949;28;20323;-88
2022/11/24 14:54:49;;;;;;;3.05;1.50;;;7.70;99.30;;;;;;4985784;28;20224;-88
2022/11/24 14:57:26;;;;;;;4.38;1.63;;;7.70;99.20;;;;;;4985709;28;20221;-89
2022/11/24 15:00:15;;;;;;;3.50;1.70;;;7.70;99.20;;;;;;4984069;28;20211;-90
2022/11/24 15:02:47;;;;;;;1.98;1.20;;;7.70;99.20;;;;;;4983177;28;20731;-89
2022/11/24 15:05:14;;;;;;;5.22;1.48;;;7.50;97.10;;;;;;4985816;28;20734;-89
2022/11/24 15:07:44;;;;;;;4.70;1.30;;;7.00;97.20;;;;;;4980496;28;20219;-90
2022/11/24 15:10:23;;;;;;;4.60;1.45;;;6.90;98.10;;;;;;4983364;28;20598;-88
2022/11/24 15:12:54;;;;;;;2.47;1.30;;;6.60;99.10;;;;;;5012362;28;20280;-88
2022/11/24 15:15:23;;;;;;;2.25;1.35;;;6.60;99.90;;;;;;5048477;28;20289;-87
2022/11/24 15:18:00;;;;;;;3.17;1.40;;;6.50;99.90;;;;;;5043217;28;20310;-91
2022/11/24 15:20:30;;;;;;;3.73;1.40;;;6.40;99.90;;;;;;5043320;28;20247;-88
2022/11/24 15:23:21;;;;;;;3.03;1.50;;;6.40;99.90;;;;;;5044615;28;20234;-87
2022/11/24 15:25:53;;;;;;;3.90;2.13;;;6.40;99.90;;;;;;5044172;28;20569;-89
2022/11/24 15:28:40;;;;;;;3.40;1.50;;;6.30;99.90;;;;;;5002281;28;20885;-90
2022/11/24 15:31:11;;;;;;;3.57;1.50;;;6.30;99.90;;;;;;5002551;28;20294;-90
2022/11/24 15:33:39;;;;;;;3.05;1.50;;;6.20;99.90;;;;;;5000165;28;20802;-90
2022/11/24 15:36:26;;;;;;;4.10;2.10;;;6.20;99.90;;;;;;4980933;28;20204;-88
2022/11/24 15:38:53;;;;;;;2.77;1.63;;;6.20;99.90;;;;;;4979837;28;20302;-90
2022/11/24 15:41:24;;;;;;;2.60;1.30;;;6.20;99.90;;;;;;4983737;28;20207;-88
2022/11/24 15:43:58;;;;;;;4.05;1.70;;;6.10;99.90;;;;;;4983834;28;20216;-90
2022/11/24 15:46:25;;;;;;;2.90;1.48;;;6.10;99.90;;;;;;4986143;28;20268;-89
2022/11/24 15:48:53;;;;;;;3.73;1.93;;;6.10;99.90;;;;;;4990287;28;20922;-90
2022/11/24 15:51:26;;;;;;;4.68;1.95;;;6.10;99.90;;;;;;4984930;28;21878;-89
2022/11/24 15:53:55;;;;;;;2.53;1.65;;;6.00;99.90;;;;;;5021750;28;20664;-90
2022/11/24 15:56:35;;;;;;;3.45;2.03;;;5.90;99.90;;;;;;5047458;28;20210;-91
2022/11/24 15:59:03;;;;;;;3.73;2.07;;;5.90;99.90;;;;;;5041960;28;20555;-91
2022/11/24 16:01:33;;;;;;;2.43;1.70;;;5.90;99.90;;;;;;5049377;28;20241;-88
2022/11/24 16:04:00;;;;;;;5.57;2.40;;;5.90;99.90;;;;;;5041821;28;20408;-87
2022/11/24 16:06:27;;;;;;;6.00;2.40;;;5.70;99.90;;;;;;5041159;28;20680;-87
2022/11/24 16:08:54;;;;;;;5.67;2.50;;;5.60;99.90;;;;;;5047474;28;20733;-91
2022/11/24 16:11:21;;;;;;;4.97;2.17;;;5.50;99.90;;;;;;5051486;28;20634;-90
2022/11/24 16:13:50;;;;;;;6.93;2.60;;;5.50;99.90;;;;;;5043069;28;20205;-88